sensor_id;sensor_type;location;lat;lon;timestamp;pressure;altitude;pressure_sealevel;temperature;humidity
79455;BME280;68900;52.134;5.420;2023-06-14T00:00:49;101609.94;;;20.10;43.79
79455;BME280;68900;52.134;5.420;2023-06-14T00:03:16;101612.41;;;20.05;43.66
79455;BME280;68900;52.134;5.420;2023-06-14T00:05:44;101622.44;;;19.98;43.69
79455;BME280;68900;52.134;5.420;2023-06-14T00:08:13;101618.59;;;19.93;43.72
79455;BME280;68900;52.134;5.420;2023-06-14T00:10:41;101625.75;;;19.94;43.69
79455;BME280;68900;52.134;5.420;2023-06-14T00:13:09;101614.59;;;19.95;43.71
79455;BME280;68900;52.134;5.420;2023-06-14T00:15:35;101617.06;;;19.90;43.67
79455;BME280;68900;52.134;5.420;2023-06-14T00:18:03;101618.06;;;19.82;43.77
79455;BME280;68900;52.134;5.420;2023-06-14T00:20:32;101611.06;;;19.80;44.01
79455;BME280;68900;52.134;5.420;2023-06-14T00:22:59;101621.56;;;19.76;44.12
79455;BME280;68900;52.134;5.420;2023-06-14T00:25:26;101622.28;;;19.85;44.14
79455;BME280;68900;52.134;5.420;2023-06-14T00:28:17;101620.84;;;19.89;43.73
79455;BME280;68900;52.134;5.420;2023-06-14T00:30:43;101619.75;;;19.83;43.89
79455;BME280;68900;52.134;5.420;2023-06-14T00:33:12;101624.38;;;19.83;43.96
79455;BME280;68900;52.134;5.420;2023-06-14T00:35:39;101623.00;;;19.94;43.90
79455;BME280;68900;52.134;5.420;2023-06-14T00:38:06;101616.94;;;19.77;43.74
79455;BME280;68900;52.134;5.420;2023-06-14T00:40:32;101618.34;;;19.73;44.19
79455;BME280;68900;52.134;5.420;2023-06-14T00:43:00;101623.84;;;19.73;43.90
79455;BME280;68900;52.134;5.420;2023-06-14T00:45:36;101624.13;;;19.63;43.61
79455;BME280;68900;52.134;5.420;2023-06-14T00:48:04;101616.69;;;19.57;44.18
79455;BME280;68900;52.134;5.420;2023-06-14T00:50:33;101620.94;;;19.60;44.33
79455;BME280;68900;52.134;5.420;2023-06-14T00:53:00;101620.53;;;19.63;44.50
79455;BME280;68900;52.134;5.420;2023-06-14T00:55:28;101618.94;;;19.54;44.38
79455;BME280;68900;52.134;5.420;2023-06-14T00:57:55;101619.97;;;19.38;44.83
79455;BME280;68900;52.134;5.420;2023-06-14T01:00:22;101618.84;;;19.47;44.71
79455;BME280;68900;52.134;5.420;2023-06-14T01:02:48;101618.66;;;19.49;44.57
79455;BME280;68900;52.134;5.420;2023-06-14T01:05:18;101621.81;;;19.46;44.39
79455;BME280;68900;52.134;5.420;2023-06-14T01:15:58;101619.13;;;19.23;45.07
79455;BME280;68900;52.134;5.420;2023-06-14T01:18:27;101616.28;;;19.16;45.12
79455;BME280;68900;52.134;5.420;2023-06-14T01:20:54;101620.06;;;19.30;45.01
79455;BME280;68900;52.134;5.420;2023-06-14T01:23:22;101616.97;;;19.18;45.10
79455;BME280;68900;52.134;5.420;2023-06-14T01:25:50;101610.16;;;19.00;45.31
79455;BME280;68900;52.134;5.420;2023-06-14T01:28:21;101619.59;;;18.97;45.42
79455;BME280;68900;52.134;5.420;2023-06-14T01:30:50;101621.38;;;18.90;45.68
79455;BME280;68900;52.134;5.420;2023-06-14T01:33:19;101621.16;;;18.91;45.94
79455;BME280;68900;52.134;5.420;2023-06-14T01:35:49;101622.41;;;18.89;46.00
79455;BME280;68900;52.134;5.420;2023-06-14T01:38:17;101616.66;;;18.84;45.97
79455;BME280;68900;52.134;5.420;2023-06-14T01:40:44;101617.63;;;18.91;46.07
79455;BME280;68900;52.134;5.420;2023-06-14T01:43:13;101622.91;;;19.07;45.54
79455;BME280;68900;52.134;5.420;2023-06-14T01:45:42;101622.78;;;19.01;45.36
79455;BME280;68900;52.134;5.420;2023-06-14T01:48:09;101627.50;;;19.07;45.89
79455;BME280;68900;52.134;5.420;2023-06-14T01:50:36;101622.50;;;19.10;45.28
79455;BME280;68900;52.134;5.420;2023-06-14T01:53:02;101627.50;;;19.07;45.90
79455;BME280;68900;52.134;5.420;2023-06-14T01:55:29;101622.34;;;19.12;45.96
79455;BME280;68900;52.134;5.420;2023-06-14T01:57:56;101623.19;;;19.12;45.87
79455;BME280;68900;52.134;5.420;2023-06-14T02:00:22;101623.28;;;19.04;45.74
79455;BME280;68900;52.134;5.420;2023-06-14T02:02:49;101622.03;;;19.07;46.10
79455;BME280;68900;52.134;5.420;2023-06-14T02:05:16;101626.31;;;19.09;46.01
79455;BME280;68900;52.134;5.420;2023-06-14T02:07:45;101620.91;;;19.01;45.72
79455;BME280;68900;52.134;5.420;2023-06-14T02:10:12;101622.59;;;19.02;46.40
79455;BME280;68900;52.134;5.420;2023-06-14T02:12:40;101617.81;;;19.04;46.08
79455;BME280;68900;52.134;5.420;2023-06-14T02:15:09;101624.50;;;19.02;46.45
79455;BME280;68900;52.134;5.420;2023-06-14T02:17:36;101622.31;;;18.97;46.55
79455;BME280;68900;52.134;5.420;2023-06-14T02:20:09;101621.16;;;18.91;47.16
79455;BME280;68900;52.134;5.420;2023-06-14T02:22:36;101622.59;;;18.87;47.66
79455;BME280;68900;52.134;5.420;2023-06-14T02:25:03;101618.22;;;18.78;47.53
79455;BME280;68900;52.134;5.420;2023-06-14T02:27:29;101623.22;;;18.75;47.76
79455;BME280;68900;52.134;5.420;2023-06-14T02:29:56;101621.91;;;18.71;47.17
79455;BME280;68900;52.134;5.420;2023-06-14T02:32:22;101624.34;;;18.66;47.56
79455;BME280;68900;52.134;5.420;2023-06-14T02:34:49;101622.16;;;18.61;47.41
79455;BME280;68900;52.134;5.420;2023-06-14T02:37:16;101628.88;;;18.50;47.78
79455;BME280;68900;52.134;5.420;2023-06-14T02:39:43;101627.50;;;18.54;47.65
79455;BME280;68900;52.134;5.420;2023-06-14T02:42:10;101624.41;;;18.58;48.26
79455;BME280;68900;52.134;5.420;2023-06-14T02:44:36;101630.75;;;18.58;47.28
79455;BME280;68900;52.134;5.420;2023-06-14T02:47:04;101639.41;;;18.62;48.08
79455;BME280;68900;52.134;5.420;2023-06-14T02:49:31;101632.78;;;18.56;48.10
79455;BME280;68900;52.134;5.420;2023-06-14T02:51:57;101629.94;;;18.49;48.46
79455;BME280;68900;52.134;5.420;2023-06-14T02:54:24;101631.13;;;18.47;48.64
79455;BME280;68900;52.134;5.420;2023-06-14T02:56:51;101634.41;;;18.42;49.00
79455;BME280;68900;52.134;5.420;2023-06-14T02:59:17;101644.56;;;18.34;49.33
79455;BME280;68900;52.134;5.420;2023-06-14T03:01:44;101648.00;;;18.28;49.58
79455;BME280;68900;52.134;5.420;2023-06-14T03:04:10;101639.16;;;18.26;49.69
79455;BME280;68900;52.134;5.420;2023-06-14T03:06:37;101646.19;;;18.20;49.39
79455;BME280;68900;52.134;5.420;2023-06-14T03:09:04;101642.47;;;18.13;49.51
79455;BME280;68900;52.134;5.420;2023-06-14T03:11:36;101652.94;;;18.09;50.19
79455;BME280;68900;52.134;5.420;2023-06-14T03:14:02;101654.16;;;18.07;50.05
79455;BME280;68900;52.134;5.420;2023-06-14T03:16:34;101650.91;;;18.03;49.10
79455;BME280;68900;52.134;5.420;2023-06-14T03:19:01;101654.38;;;17.97;49.31
79455;BME280;68900;52.134;5.420;2023-06-14T03:21:28;101655.94;;;17.92;49.37
79455;BME280;68900;52.134;5.420;2023-06-14T03:23:55;101656.31;;;17.89;49.72
79455;BME280;68900;52.134;5.420;2023-06-14T03:26:21;101670.28;;;17.86;49.80
79455;BME280;68900;52.134;5.420;2023-06-14T03:28:48;101661.44;;;17.84;49.44
79455;BME280;68900;52.134;5.420;2023-06-14T03:31:16;101657.19;;;17.81;50.46
79455;BME280;68900;52.134;5.420;2023-06-14T03:33:42;101660.44;;;17.77;49.49
79455;BME280;68900;52.134;5.420;2023-06-14T03:36:09;101657.44;;;17.63;49.65
79455;BME280;68900;52.134;5.420;2023-06-14T03:38:36;101658.13;;;17.65;49.38
79455;BME280;68900;52.134;5.420;2023-06-14T03:41:02;101663.56;;;17.57;49.87
79455;BME280;68900;52.134;5.420;2023-06-14T03:43:29;101670.41;;;17.53;49.75
79455;BME280;68900;52.134;5.420;2023-06-14T03:45:56;101668.22;;;17.49;49.62
79455;BME280;68900;52.134;5.420;2023-06-14T03:48:23;101665.63;;;17.55;49.81
79455;BME280;68900;52.134;5.420;2023-06-14T03:50:50;101671.09;;;17.55;49.60
79455;BME280;68900;52.134;5.420;2023-06-14T03:53:40;101673.13;;;17.53;49.90
79455;BME280;68900;52.134;5.420;2023-06-14T03:56:27;101676.22;;;17.58;49.55
79455;BME280;68900;52.134;5.420;2023-06-14T03:58:54;101683.53;;;17.66;49.75
79455;BME280;68900;52.134;5.420;2023-06-14T04:01:21;101685.59;;;17.64;50.01
79455;BME280;68900;52.134;5.420;2023-06-14T04:03:51;101677.25;;;17.49;50.29
79455;BME280;68900;52.134;5.420;2023-06-14T04:06:18;101687.84;;;17.52;50.18
79455;BME280;68900;52.134;5.420;2023-06-14T04:08:45;101694.97;;;17.53;49.89
79455;BME280;68900;52.134;5.420;2023-06-14T04:11:12;101693.97;;;17.46;50.56
79455;BME280;68900;52.134;5.420;2023-06-14T04:13:38;101695.53;;;17.41;50.88
79455;BME280;68900;52.134;5.420;2023-06-14T04:16:05;101705.22;;;17.43;50.77
79455;BME280;68900;52.134;5.420;2023-06-14T04:18:32;101706.78;;;17.46;51.28
79455;BME280;68900;52.134;5.420;2023-06-14T04:20:58;101707.09;;;17.51;50.88
79455;BME280;68900;52.134;5.420;2023-06-14T04:23:25;101700.81;;;17.42;50.79
79455;BME280;68900;52.134;5.420;2023-06-14T04:25:54;101708.81;;;17.44;51.64
79455;BME280;68900;52.134;5.420;2023-06-14T04:28:20;101705.91;;;17.61;50.92
79455;BME280;68900;52.134;5.420;2023-06-14T04:30:51;101707.91;;;17.67;50.37
79455;BME280;68900;52.134;5.420;2023-06-14T04:33:19;101711.13;;;17.79;50.14
79455;BME280;68900;52.134;5.420;2023-06-14T04:35:46;101707.00;;;17.83;50.31
79455;BME280;68900;52.134;5.420;2023-06-14T04:38:19;101709.47;;;17.70;50.25
79455;BME280;68900;52.134;5.420;2023-06-14T04:40:50;101708.59;;;17.70;50.78
79455;BME280;68900;52.134;5.420;2023-06-14T04:43:19;101711.69;;;17.58;50.76
79455;BME280;68900;52.134;5.420;2023-06-14T04:45:52;101718.50;;;17.62;51.21
79455;BME280;68900;52.134;5.420;2023-06-14T04:48:21;101717.78;;;17.77;50.88
79455;BME280;68900;52.134;5.420;2023-06-14T04:50:49;101722.91;;;17.80;50.93
79455;BME280;68900;52.134;5.420;2023-06-14T04:53:20;101718.78;;;17.76;51.04
79455;BME280;68900;52.134;5.420;2023-06-14T04:55:49;101718.47;;;17.79;50.45
79455;BME280;68900;52.134;5.420;2023-06-14T04:58:19;101720.50;;;17.77;51.01
79455;BME280;68900;52.134;5.420;2023-06-14T05:00:45;101726.03;;;17.60;51.31
79455;BME280;68900;52.134;5.420;2023-06-14T05:03:12;101732.63;;;17.74;51.74
79455;BME280;68900;52.134;5.420;2023-06-14T05:05:40;101724.53;;;17.97;51.33
79455;BME280;68900;52.134;5.420;2023-06-14T05:08:10;101722.06;;;18.10;50.37
79455;BME280;68900;52.134;5.420;2023-06-14T05:10:36;101724.91;;;17.86;51.09
79455;BME280;68900;52.134;5.420;2023-06-14T05:13:03;101734.06;;;18.01;51.05
79455;BME280;68900;52.134;5.420;2023-06-14T05:15:30;101723.81;;;18.03;50.67
79455;BME280;68900;52.134;5.420;2023-06-14T05:17:56;101732.50;;;18.06;50.44
79455;BME280;68900;52.134;5.420;2023-06-14T05:20:28;101729.22;;;18.11;50.57
79455;BME280;68900;52.134;5.420;2023-06-14T05:22:55;101727.84;;;18.15;50.44
79455;BME280;68900;52.134;5.420;2023-06-14T05:25:23;101732.91;;;18.26;50.94
79455;BME280;68900;52.134;5.420;2023-06-14T05:27:49;101735.44;;;18.28;50.89
79455;BME280;68900;52.134;5.420;2023-06-14T05:30:16;101733.41;;;18.30;50.67
79455;BME280;68900;52.134;5.420;2023-06-14T05:32:42;101738.66;;;18.31;50.55
79455;BME280;68900;52.134;5.420;2023-06-14T05:35:09;101731.53;;;18.30;50.37
79455;BME280;68900;52.134;5.420;2023-06-14T05:37:37;101738.50;;;18.33;50.32
79455;BME280;68900;52.134;5.420;2023-06-14T05:40:05;101735.06;;;18.39;50.26
79455;BME280;68900;52.134;5.420;2023-06-14T05:42:32;101744.22;;;18.46;50.10
79455;BME280;68900;52.134;5.420;2023-06-14T05:44:59;101747.16;;;18.44;49.78
79455;BME280;68900;52.134;5.420;2023-06-14T05:47:26;101753.47;;;18.45;49.34
79455;BME280;68900;52.134;5.420;2023-06-14T05:49:54;101748.34;;;18.42;49.58
79455;BME280;68900;52.134;5.420;2023-06-14T05:52:21;101755.97;;;18.54;49.19
79455;BME280;68900;52.134;5.420;2023-06-14T05:55:09;101762.81;;;18.50;48.83
79455;BME280;68900;52.134;5.420;2023-06-14T05:57:39;101748.47;;;18.57;48.83
79455;BME280;68900;52.134;5.420;2023-06-14T06:00:07;101758.97;;;18.68;48.96
79455;BME280;68900;52.134;5.420;2023-06-14T06:02:37;101764.06;;;18.71;48.92
79455;BME280;68900;52.134;5.420;2023-06-14T06:05:04;101760.25;;;18.80;48.29
79455;BME280;68900;52.134;5.420;2023-06-14T06:07:30;101762.97;;;18.80;48.19
79455;BME280;68900;52.134;5.420;2023-06-14T06:09:57;101759.84;;;18.91;48.74
79455;BME280;68900;52.134;5.420;2023-06-14T06:12:23;101762.59;;;19.06;47.85
79455;BME280;68900;52.134;5.420;2023-06-14T06:14:50;101766.13;;;19.14;47.42
79455;BME280;68900;52.134;5.420;2023-06-14T06:17:31;101771.88;;;19.19;46.91
79455;BME280;68900;52.134;5.420;2023-06-14T06:20:24;101770.41;;;19.31;46.98
79455;BME280;68900;52.134;5.420;2023-06-14T06:22:58;101769.00;;;19.35;46.66
79455;BME280;68900;52.134;5.420;2023-06-14T06:25:26;101778.00;;;19.44;47.16
79455;BME280;68900;52.134;5.420;2023-06-14T06:28:10;101769.91;;;19.51;46.12
79455;BME280;68900;52.134;5.420;2023-06-14T06:30:38;101764.44;;;19.51;46.75
79455;BME280;68900;52.134;5.420;2023-06-14T06:33:05;101768.78;;;19.60;45.99
79455;BME280;68900;52.134;5.420;2023-06-14T06:35:32;101777.66;;;19.62;45.58
79455;BME280;68900;52.134;5.420;2023-06-14T06:37:59;101779.47;;;19.69;45.85
79455;BME280;68900;52.134;5.420;2023-06-14T06:40:27;101779.25;;;19.71;44.94
79455;BME280;68900;52.134;5.420;2023-06-14T06:42:54;101775.09;;;19.75;45.50
79455;BME280;68900;52.134;5.420;2023-06-14T06:45:21;101785.41;;;19.88;46.19
79455;BME280;68900;52.134;5.420;2023-06-14T06:47:50;101787.88;;;19.97;45.08
79455;BME280;68900;52.134;5.420;2023-06-14T06:50:58;101788.63;;;20.06;44.63
79455;BME280;68900;52.134;5.420;2023-06-14T07:05:51;101806.91;;;20.49;43.60
79455;BME280;68900;52.134;5.420;2023-06-14T07:08:31;101800.47;;;20.57;43.29
79455;BME280;68900;52.134;5.420;2023-06-14T07:11:06;101802.44;;;20.63;43.28
79455;BME280;68900;52.134;5.420;2023-06-14T07:14:11;101805.41;;;20.83;43.15
79455;BME280;68900;52.134;5.420;2023-06-14T07:17:31;101807.09;;;21.05;43.34
79455;BME280;68900;52.134;5.420;2023-06-14T07:20:20;101807.31;;;21.03;41.73
79455;BME280;68900;52.134;5.420;2023-06-14T07:27:39;101812.56;;;21.20;42.30
79455;BME280;68900;52.134;5.420;2023-06-14T07:39:52;101814.44;;;21.68;40.31
79455;BME280;68900;52.134;5.420;2023-06-14T07:42:46;101816.53;;;21.94;39.82
79455;BME280;68900;52.134;5.420;2023-06-14T07:45:33;101813.88;;;22.07;39.21
79455;BME280;68900;52.134;5.420;2023-06-14T07:48:37;101825.72;;;22.08;38.57
79455;BME280;68900;52.134;5.420;2023-06-14T07:56:07;101821.94;;;22.15;38.88
79455;BME280;68900;52.134;5.420;2023-06-14T08:27:41;101829.09;;;23.31;36.01
79455;BME280;68900;52.134;5.420;2023-06-14T08:34:44;101823.38;;;23.32;34.30
79455;BME280;68900;52.134;5.420;2023-06-14T08:38:03;101831.22;;;23.35;34.89
79455;BME280;68900;52.134;5.420;2023-06-14T08:52:15;101826.94;;;24.05;32.75
79455;BME280;68900;52.134;5.420;2023-06-14T08:59:31;101827.38;;;24.09;31.70
79455;BME280;68900;52.134;5.420;2023-06-14T09:02:53;101828.63;;;24.26;31.85
79455;BME280;68900;52.134;5.420;2023-06-14T09:09:32;101827.94;;;24.37;31.60
79455;BME280;68900;52.134;5.420;2023-06-14T09:12:42;101826.22;;;24.49;31.96
79455;BME280;68900;52.134;5.420;2023-06-14T09:30:09;101840.06;;;24.87;29.78
79455;BME280;68900;52.134;5.420;2023-06-14T09:32:57;101840.69;;;24.89;29.90
79455;BME280;68900;52.134;5.420;2023-06-14T09:35:39;101850.00;;;24.95;29.33
79455;BME280;68900;52.134;5.420;2023-06-14T09:38:11;101852.09;;;24.99;28.71
79455;BME280;68900;52.134;5.420;2023-06-14T09:44:35;101839.22;;;24.87;29.17
79455;BME280;68900;52.134;5.420;2023-06-14T09:47:26;101834.09;;;24.90;29.08
79455;BME280;68900;52.134;5.420;2023-06-14T09:50:07;101832.81;;;25.24;29.59
79455;BME280;68900;52.134;5.420;2023-06-14T09:52:53;101827.97;;;25.44;30.15
79455;BME280;68900;52.134;5.420;2023-06-14T09:55:49;101835.22;;;25.39;29.35
79455;BME280;68900;52.134;5.420;2023-06-14T09:58:39;101833.13;;;25.34;29.76
79455;BME280;68900;52.134;5.420;2023-06-14T10:01:31;101836.72;;;25.41;28.56
79455;BME280;68900;52.134;5.420;2023-06-14T10:04:14;101830.94;;;25.18;29.13
79455;BME280;68900;52.134;5.420;2023-06-14T10:06:45;101831.97;;;25.24;28.92
79455;BME280;68900;52.134;5.420;2023-06-14T10:09:52;101834.78;;;25.42;29.73
79455;BME280;68900;52.134;5.420;2023-06-14T10:12:19;101822.00;;;25.47;28.41
79455;BME280;68900;52.134;5.420;2023-06-14T10:15:04;101827.91;;;25.51;29.37
79455;BME280;68900;52.134;5.420;2023-06-14T10:17:37;101826.78;;;25.83;27.50
79455;BME280;68900;52.134;5.420;2023-06-14T10:20:29;101829.13;;;25.62;27.14
79455;BME280;68900;52.134;5.420;2023-06-14T10:23:10;101829.19;;;25.48;28.01
79455;BME280;68900;52.134;5.420;2023-06-14T10:25:39;101824.38;;;25.69;28.33
79455;BME280;68900;52.134;5.420;2023-06-14T10:30:38;101824.19;;;25.88;27.95
79455;BME280;68900;52.134;5.420;2023-06-14T10:33:06;101825.03;;;25.89;28.87
79455;BME280;68900;52.134;5.420;2023-06-14T10:35:42;101827.88;;;26.01;27.99
79455;BME280;68900;52.134;5.420;2023-06-14T10:41:53;101820.66;;;26.00;27.78
79455;BME280;68900;52.134;5.420;2023-06-14T10:45:07;101819.19;;;25.79;28.30
79455;BME280;68900;52.134;5.420;2023-06-14T10:47:48;101818.72;;;25.82;28.51
79455;BME280;68900;52.134;5.420;2023-06-14T10:50:42;101834.63;;;25.86;27.93
79455;BME280;68900;52.134;5.420;2023-06-14T10:53:25;101822.13;;;25.84;27.46
79455;BME280;68900;52.134;5.420;2023-06-14T10:59:50;101818.22;;;26.46;27.48
79455;BME280;68900;52.134;5.420;2023-06-14T11:05:59;101819.97;;;26.04;27.73
79455;BME280;68900;52.134;5.420;2023-06-14T11:11:48;101816.97;;;25.87;27.98
79455;BME280;68900;52.134;5.420;2023-06-14T11:15:29;101824.44;;;26.05;29.31
79455;BME280;68900;52.134;5.420;2023-06-14T11:18:02;101814.91;;;26.19;28.74
79455;BME280;68900;52.134;5.420;2023-06-14T11:20:54;101815.09;;;26.43;27.75
79455;BME280;68900;52.134;5.420;2023-06-14T11:23:51;101817.31;;;26.34;28.08
79455;BME280;68900;52.134;5.420;2023-06-14T11:26:41;101814.16;;;26.49;27.97
79455;BME280;68900;52.134;5.420;2023-06-14T11:32:17;101808.91;;;26.41;26.68
79455;BME280;68900;52.134;5.420;2023-06-14T11:35:06;101807.41;;;26.26;27.02
79455;BME280;68900;52.134;5.420;2023-06-14T11:38:20;101800.00;;;26.20;27.11
79455;BME280;68900;52.134;5.420;2023-06-14T11:40:52;101796.38;;;26.20;27.73
79455;BME280;68900;52.134;5.420;2023-06-14T11:43:39;101795.63;;;26.49;27.81
79455;BME280;68900;52.134;5.420;2023-06-14T11:46:25;101800.91;;;26.51;27.32
79455;BME280;68900;52.134;5.420;2023-06-14T11:48:54;101794.81;;;26.60;27.94
79455;BME280;68900;52.134;5.420;2023-06-14T11:51:37;101795.94;;;26.89;28.16
79455;BME280;68900;52.134;5.420;2023-06-14T11:54:11;101796.34;;;27.04;26.24
79455;BME280;68900;52.134;5.420;2023-06-14T11:56:53;101808.59;;;26.97;26.62
79455;BME280;68900;52.134;5.420;2023-06-14T11:59:45;101807.78;;;26.78;26.72
79455;BME280;68900;52.134;5.420;2023-06-14T12:02:56;101804.78;;;26.79;27.17
79455;BME280;68900;52.134;5.420;2023-06-14T12:05:26;101799.19;;;26.86;26.88
79455;BME280;68900;52.134;5.420;2023-06-14T12:07:59;101789.97;;;27.15;27.15
79455;BME280;68900;52.134;5.420;2023-06-14T12:10:46;101800.75;;;27.23;27.04
79455;BME280;68900;52.134;5.420;2023-06-14T12:13:16;101799.38;;;27.14;26.00
79455;BME280;68900;52.134;5.420;2023-06-14T12:15:54;101795.28;;;27.29;27.02
79455;BME280;68900;52.134;5.420;2023-06-14T12:18:31;101806.66;;;27.39;26.97
79455;BME280;68900;52.134;5.420;2023-06-14T12:20:59;101811.31;;;27.15;26.39
79455;BME280;68900;52.134;5.420;2023-06-14T12:23:48;101797.00;;;27.18;26.47
79455;BME280;68900;52.134;5.420;2023-06-14T12:26:17;101793.50;;;27.22;26.79
79455;BME280;68900;52.134;5.420;2023-06-14T12:28:47;101794.13;;;27.36;27.63
79455;BME280;68900;52.134;5.420;2023-06-14T12:31:17;101806.16;;;27.30;27.93
79455;BME280;68900;52.134;5.420;2023-06-14T12:33:54;101796.31;;;27.46;26.94
79455;BME280;68900;52.134;5.420;2023-06-14T12:36:21;101798.47;;;27.44;26.76
79455;BME280;68900;52.134;5.420;2023-06-14T12:39:23;101801.72;;;27.41;27.23
79455;BME280;68900;52.134;5.420;2023-06-14T12:42:27;101801.59;;;27.47;26.73
79455;BME280;68900;52.134;5.420;2023-06-14T12:45:12;101803.81;;;27.57;26.81
79455;BME280;68900;52.134;5.420;2023-06-14T12:51:26;101803.03;;;27.38;25.91
79455;BME280;68900;52.134;5.420;2023-06-14T12:53:54;101784.34;;;27.34;25.31
79455;BME280;68900;52.134;5.420;2023-06-14T12:57:04;101795.19;;;27.23;25.89
79455;BME280;68900;52.134;5.420;2023-06-14T12:59:50;101812.69;;;27.47;25.07
79455;BME280;68900;52.134;5.420;2023-06-14T13:02:26;101808.94;;;27.30;25.49
79455;BME280;68900;52.134;5.420;2023-06-14T13:04:54;101821.72;;;27.43;24.38
79455;BME280;68900;52.134;5.420;2023-06-14T13:07:21;101815.19;;;27.14;24.34
79455;BME280;68900;52.134;5.420;2023-06-14T13:09:48;101818.53;;;27.04;25.37
79455;BME280;68900;52.134;5.420;2023-06-14T13:12:32;101807.00;;;27.19;24.42
79455;BME280;68900;52.134;5.420;2023-06-14T13:15:19;101802.31;;;27.43;25.43
79455;BME280;68900;52.134;5.420;2023-06-14T13:18:15;101817.16;;;27.37;25.61
79455;BME280;68900;52.134;5.420;2023-06-14T13:21:02;101815.69;;;27.22;25.65
79455;BME280;68900;52.134;5.420;2023-06-14T13:23:28;101812.81;;;27.41;26.22
79455;BME280;68900;52.134;5.420;2023-06-14T13:26:09;101819.03;;;27.13;25.82
79455;BME280;68900;52.134;5.420;2023-06-14T13:28:54;101818.88;;;27.49;25.05
79455;BME280;68900;52.134;5.420;2023-06-14T13:31:20;101821.72;;;27.43;25.96
79455;BME280;68900;52.134;5.420;2023-06-14T13:33:53;101812.69;;;27.47;26.35
79455;BME280;68900;52.134;5.420;2023-06-14T13:36:19;101816.41;;;27.30;27.15
79455;BME280;68900;52.134;5.420;2023-06-14T13:42:33;101817.09;;;27.55;26.32
79455;BME280;68900;52.134;5.420;2023-06-14T13:45:11;101818.94;;;27.43;26.47
79455;BME280;68900;52.134;5.420;2023-06-14T13:47:38;101805.44;;;27.23;26.38
79455;BME280;68900;52.134;5.420;2023-06-14T13:50:05;101817.63;;;26.92;27.10
79455;BME280;68900;52.134;5.420;2023-06-14T13:52:32;101815.88;;;27.09;26.93
79455;BME280;68900;52.134;5.420;2023-06-14T13:54:59;101806.53;;;27.34;26.85
79455;BME280;68900;52.134;5.420;2023-06-14T13:57:32;101808.97;;;27.42;27.29
79455;BME280;68900;52.134;5.420;2023-06-14T13:59:59;101790.00;;;27.27;25.86
79455;BME280;68900;52.134;5.420;2023-06-14T14:02:34;101800.75;;;27.47;26.45
79455;BME280;68900;52.134;5.420;2023-06-14T14:05:03;101806.78;;;27.44;26.67
79455;BME280;68900;52.134;5.420;2023-06-14T14:07:33;101793.69;;;27.62;25.54
79455;BME280;68900;52.134;5.420;2023-06-14T14:10:10;101795.72;;;27.67;25.87
79455;BME280;68900;52.134;5.420;2023-06-14T14:12:40;101804.00;;;27.32;25.65
79455;BME280;68900;52.134;5.420;2023-06-14T14:15:15;101787.66;;;27.54;26.28
79455;BME280;68900;52.134;5.420;2023-06-14T14:17:45;101796.47;;;27.62;25.33
79455;BME280;68900;52.134;5.420;2023-06-14T14:23:49;101788.72;;;27.99;24.68
79455;BME280;68900;52.134;5.420;2023-06-14T14:26:19;101788.13;;;27.86;25.39
79455;BME280;68900;52.134;5.420;2023-06-14T14:28:46;101794.25;;;27.99;24.91
79455;BME280;68900;52.134;5.420;2023-06-14T14:31:36;101790.53;;;28.05;25.31
79455;BME280;68900;52.134;5.420;2023-06-14T14:34:21;101797.53;;;27.96;25.64
79455;BME280;68900;52.134;5.420;2023-06-14T14:37:11;101788.03;;;27.69;25.12
79455;BME280;68900;52.134;5.420;2023-06-14T14:40:06;101790.50;;;27.47;25.53
79455;BME280;68900;52.134;5.420;2023-06-14T14:42:38;101791.88;;;27.80;25.80
79455;BME280;68900;52.134;5.420;2023-06-14T14:45:26;101788.00;;;28.16;25.77
79455;BME280;68900;52.134;5.420;2023-06-14T14:48:10;101787.88;;;28.62;25.00
79455;BME280;68900;52.134;5.420;2023-06-14T14:55:06;101778.59;;;28.57;23.80
79455;BME280;68900;52.134;5.420;2023-06-14T15:05:51;101788.00;;;28.55;23.43
79455;BME280;68900;52.134;5.420;2023-06-14T15:11:28;101781.38;;;28.45;23.45
79455;BME280;68900;52.134;5.420;2023-06-14T15:14:28;101792.31;;;28.63;24.21
79455;BME280;68900;52.134;5.420;2023-06-14T15:16:58;101778.13;;;28.76;23.08
79455;BME280;68900;52.134;5.420;2023-06-14T15:19:47;101780.63;;;28.61;23.97
79455;BME280;68900;52.134;5.420;2023-06-14T15:22:30;101775.88;;;28.33;23.96
79455;BME280;68900;52.134;5.420;2023-06-14T15:25:07;101786.66;;;28.30;24.59
79455;BME280;68900;52.134;5.420;2023-06-14T15:27:34;101778.78;;;28.27;24.58
79455;BME280;68900;52.134;5.420;2023-06-14T15:30:09;101784.84;;;28.00;24.71
79455;BME280;68900;52.134;5.420;2023-06-14T15:32:37;101777.84;;;28.09;25.40
79455;BME280;68900;52.134;5.420;2023-06-14T15:35:10;101783.59;;;28.31;25.17
79455;BME280;68900;52.134;5.420;2023-06-14T15:50:31;101788.28;;;28.42;24.73
79455;BME280;68900;52.134;5.420;2023-06-14T15:53:18;101783.03;;;28.18;25.04
79455;BME280;68900;52.134;5.420;2023-06-14T15:55:52;101782.56;;;28.21;24.83
79455;BME280;68900;52.134;5.420;2023-06-14T15:58:40;101790.25;;;28.30;25.01
79455;BME280;68900;52.134;5.420;2023-06-14T16:04:09;101782.00;;;28.47;24.33
79455;BME280;68900;52.134;5.420;2023-06-14T16:06:56;101776.41;;;28.19;24.19
79455;BME280;68900;52.134;5.420;2023-06-14T16:09:36;101778.84;;;27.92;25.13
79455;BME280;68900;52.134;5.420;2023-06-14T16:12:06;101786.09;;;27.81;25.16
79455;BME280;68900;52.134;5.420;2023-06-14T16:18:56;101787.28;;;27.97;25.61
79455;BME280;68900;52.134;5.420;2023-06-14T16:21:44;101789.22;;;27.73;24.58
79455;BME280;68900;52.134;5.420;2023-06-14T16:24:14;101782.94;;;27.66;24.70
79455;BME280;68900;52.134;5.420;2023-06-14T16:26:42;101785.22;;;27.46;24.95